createdAt,value
2019-03-23T00:01:43.005Z,13.03
2019-03-23T00:04:10.257Z,11.60
2019-03-23T00:06:40.504Z,11.68
2019-03-23T00:09:07.856Z,13.22
2019-03-23T00:11:35.150Z,12.90
2019-03-23T00:14:02.648Z,12.15
2019-03-23T00:16:29.900Z,11.90
2019-03-23T00:18:57.228Z,13.62
2019-03-23T00:21:24.492Z,12.33
2019-03-23T00:23:51.897Z,11.68
2019-03-23T00:26:19.131Z,12.05
2019-03-23T00:28:46.374Z,13.65
2019-03-23T00:31:13.627Z,14.35
2019-03-23T00:33:40.846Z,13.08
2019-03-23T00:36:08.091Z,13.58
2019-03-23T00:38:35.333Z,13.00
2019-03-23T00:41:02.584Z,13.32
2019-03-23T00:43:29.887Z,12.05
2019-03-23T00:45:57.133Z,13.25
2019-03-23T00:48:24.380Z,12.13
2019-03-23T00:50:51.614Z,12.03
2019-03-23T00:53:18.835Z,12.93
2019-03-23T00:55:46.112Z,11.95
2019-03-23T00:58:13.339Z,13.35
2019-03-23T01:00:40.573Z,12.80
2019-03-23T01:03:07.903Z,13.22
2019-03-23T01:05:35.144Z,12.65
2019-03-23T01:08:02.404Z,13.58
2019-03-23T01:10:29.720Z,12.40
2019-03-23T01:12:56.943Z,12.63
2019-03-23T01:15:24.185Z,12.15
2019-03-23T01:17:51.487Z,13.75
2019-03-23T01:20:18.732Z,12.85
2019-03-23T01:22:45.961Z,12.98
2019-03-23T01:25:13.257Z,12.15
2019-03-23T01:27:40.562Z,13.30
2019-03-23T01:30:09.323Z,12.65
2019-03-23T01:32:36.552Z,12.53
2019-03-23T01:35:04.757Z,12.05
2019-03-23T01:37:31.996Z,11.73
2019-03-23T01:39:59.243Z,12.80
2019-03-23T01:42:26.473Z,13.28
2019-03-23T01:44:53.699Z,13.35
2019-03-23T01:47:20.948Z,13.18
2019-03-23T01:49:48.176Z,12.53
2019-03-23T01:52:15.416Z,11.12
2019-03-23T01:54:42.652Z,12.82
2019-03-23T01:57:09.889Z,12.37
2019-03-23T01:59:37.103Z,13.05
2019-03-23T02:02:04.407Z,12.80
2019-03-23T02:04:31.638Z,11.97
2019-03-23T02:06:59.056Z,12.93
2019-03-23T02:09:26.271Z,12.25
2019-03-23T02:11:53.507Z,13.32
2019-03-23T02:14:20.739Z,12.68
2019-03-23T02:16:47.976Z,11.20
2019-03-23T02:19:15.207Z,11.75
2019-03-23T02:21:42.431Z,11.25
2019-03-23T02:24:09.655Z,10.75
2019-03-23T02:26:36.924Z,12.60
2019-03-23T02:29:04.143Z,9.95
2019-03-23T02:31:31.396Z,13.15
2019-03-23T02:33:58.640Z,14.00
2019-03-23T02:36:25.863Z,11.95
2019-03-23T02:38:53.092Z,11.88
2019-03-23T02:41:20.331Z,11.83
2019-03-23T02:43:47.557Z,13.15
2019-03-23T02:46:14.796Z,12.70
2019-03-23T02:48:42.031Z,11.85
2019-03-23T02:51:09.257Z,11.20
2019-03-23T02:53:36.506Z,12.50
2019-03-23T02:56:03.725Z,12.70
2019-03-23T02:58:30.964Z,12.70
2019-03-23T03:00:58.204Z,10.55
2019-03-23T03:03:25.446Z,11.12
2019-03-23T03:05:52.726Z,11.57
2019-03-23T03:08:19.965Z,11.48
2019-03-23T03:10:47.184Z,11.15
2019-03-23T03:13:14.431Z,11.88
2019-03-23T03:15:41.673Z,12.70
2019-03-23T03:18:10.278Z,12.63
2019-03-23T03:20:37.571Z,12.88
2019-03-23T03:23:04.808Z,11.55
2019-03-23T03:25:32.070Z,12.23
2019-03-23T03:27:59.312Z,11.78
2019-03-23T03:30:26.545Z,12.45
2019-03-23T03:32:53.823Z,12.58
2019-03-23T03:35:21.053Z,11.80
2019-03-23T03:37:56.560Z,11.75
2019-03-23T03:40:17.251Z,10.45
2019-03-23T03:42:44.483Z,11.70
2019-03-23T03:45:21.981Z,11.20
2019-03-23T03:47:49.269Z,12.75
2019-03-23T03:50:16.491Z,11.80
2019-03-23T03:52:43.731Z,11.38
2019-03-23T03:55:10.955Z,10.10
2019-03-23T03:57:38.197Z,11.65
2019-03-23T04:00:08.682Z,12.33
2019-03-23T04:02:35.918Z,11.15
2019-03-23T04:05:03.156Z,11.57
2019-03-23T04:07:30.399Z,12.00
2019-03-23T04:09:57.627Z,11.65
2019-03-23T04:12:24.872Z,12.30
2019-03-23T04:14:52.097Z,11.73
2019-03-23T04:17:19.347Z,10.00
2019-03-23T04:19:46.579Z,11.88
2019-03-23T04:22:13.824Z,10.40
2019-03-23T04:24:41.072Z,11.15
2019-03-23T04:27:08.304Z,11.80
2019-03-23T04:29:35.600Z,10.98
2019-03-23T04:32:02.850Z,10.35
2019-03-23T04:34:30.127Z,11.55
2019-03-23T04:36:57.360Z,11.97
2019-03-23T04:39:24.594Z,10.43
2019-03-23T04:41:51.811Z,10.38
2019-03-23T04:44:19.043Z,10.63
2019-03-23T04:46:46.272Z,13.20
2019-03-23T04:49:13.502Z,11.93
2019-03-23T04:51:40.724Z,13.25
2019-03-23T04:54:07.972Z,11.30
2019-03-23T04:56:35.368Z,10.60
2019-03-23T04:59:02.603Z,10.75
2019-03-23T05:01:29.819Z,12.18
2019-03-23T05:03:57.103Z,11.45
2019-03-23T05:06:24.340Z,11.30
2019-03-23T05:08:51.577Z,10.43
2019-03-23T05:11:18.802Z,10.08
2019-03-23T05:13:46.043Z,10.38
2019-03-23T05:16:13.277Z,11.05
2019-03-23T05:18:40.547Z,11.90
2019-03-23T05:21:07.779Z,11.20
2019-03-23T05:23:35.005Z,12.33
2019-03-23T05:26:02.255Z,10.05
2019-03-23T05:28:29.488Z,11.53
2019-03-23T05:30:56.721Z,10.90
2019-03-23T05:33:23.951Z,9.88
2019-03-23T05:35:51.168Z,11.18
2019-03-23T05:38:18.395Z,12.15
2019-03-23T05:40:45.618Z,10.70
2019-03-23T05:43:12.851Z,10.95
2019-03-23T05:45:40.071Z,10.93
2019-03-23T05:48:07.298Z,12.53
2019-03-23T05:50:34.541Z,11.10
2019-03-23T05:53:01.760Z,12.37
2019-03-23T05:55:28.999Z,12.55
2019-03-23T05:57:56.289Z,10.40
2019-03-23T06:00:23.539Z,12.60
2019-03-23T06:02:50.791Z,10.20
2019-03-23T06:05:18.034Z,11.57
2019-03-23T06:07:45.271Z,11.03
2019-03-23T06:10:12.579Z,11.00
2019-03-23T06:12:39.797Z,9.73
2019-03-23T06:15:07.224Z,10.38
2019-03-23T06:17:34.458Z,10.82
2019-03-23T06:20:01.700Z,11.20
2019-03-23T06:22:28.921Z,10.90
2019-03-23T06:24:56.172Z,10.88
2019-03-23T06:27:23.403Z,10.53
2019-03-23T06:29:50.632Z,12.85
2019-03-23T06:32:17.856Z,9.78
2019-03-23T06:34:45.094Z,12.63
2019-03-23T06:37:12.311Z,11.03
2019-03-23T06:39:39.568Z,10.25
2019-03-23T06:42:06.800Z,11.22
2019-03-23T06:44:34.102Z,11.35
2019-03-23T06:47:01.325Z,12.68
2019-03-23T06:49:28.658Z,10.45
2019-03-23T06:51:55.892Z,10.43
2019-03-23T06:54:23.125Z,11.60
2019-03-23T06:56:50.352Z,12.58
2019-03-23T06:59:17.610Z,12.90
2019-03-23T07:01:44.835Z,10.88
2019-03-23T07:04:12.081Z,11.90
2019-03-23T07:06:39.296Z,10.28
2019-03-23T07:09:15.846Z,13.15
2019-03-23T07:11:35.556Z,10.95
2019-03-23T07:14:02.824Z,13.03
2019-03-23T07:16:30.067Z,11.75
2019-03-23T07:18:57.311Z,11.80
2019-03-23T07:21:24.562Z,11.68
2019-03-23T07:23:51.822Z,11.63
2019-03-23T07:26:19.060Z,12.23
2019-03-23T07:28:46.297Z,10.65
2019-03-23T07:31:13.650Z,11.43
2019-03-23T07:33:40.967Z,11.63
2019-03-23T07:36:08.332Z,11.45
2019-03-23T07:38:35.567Z,12.47
2019-03-23T07:41:02.796Z,10.95
2019-03-23T07:43:30.044Z,11.53
2019-03-23T07:45:57.304Z,10.90
2019-03-23T07:48:24.531Z,11.77
2019-03-23T07:50:51.774Z,12.50
2019-03-23T07:53:18.994Z,15.50
2019-03-23T07:55:46.227Z,14.60
2019-03-23T07:58:13.451Z,13.77
2019-03-23T08:00:41.098Z,12.13
2019-03-23T08:03:08.389Z,12.43
2019-03-23T08:05:35.689Z,10.60
2019-03-23T08:08:02.968Z,13.30
2019-03-23T08:10:31.747Z,10.97
2019-03-23T08:12:59.206Z,12.87
2019-03-23T08:15:27.903Z,11.63
2019-03-23T08:17:55.413Z,12.37
2019-03-23T08:20:22.700Z,11.20
2019-03-23T08:22:50.065Z,13.23
2019-03-23T08:25:17.390Z,12.73
2019-03-23T08:27:44.692Z,12.70
2019-03-23T08:30:11.933Z,14.13
2019-03-23T08:32:39.177Z,14.30
2019-03-23T08:35:06.680Z,13.13
2019-03-23T08:37:33.917Z,14.50
2019-03-23T08:40:01.150Z,14.83
2019-03-23T08:42:28.370Z,13.77
2019-03-23T08:44:55.604Z,16.87
2019-03-23T08:47:22.875Z,15.57
2019-03-23T08:49:50.114Z,15.47
2019-03-23T08:52:17.339Z,15.03
2019-03-23T08:54:44.585Z,14.07
2019-03-23T08:57:11.895Z,15.67
2019-03-23T08:59:39.119Z,14.73
2019-03-23T09:02:06.401Z,15.80
2019-03-23T09:04:33.602Z,16.33
2019-03-23T09:07:01.070Z,14.27
2019-03-23T09:09:28.341Z,17.07
2019-03-23T09:11:55.569Z,17.00
2019-03-23T09:14:23.568Z,16.07
2019-03-23T09:16:50.906Z,15.80
2019-03-23T09:19:18.139Z,15.57
2019-03-23T09:21:45.376Z,17.90
2019-03-23T09:24:12.931Z,18.00
2019-03-23T09:26:40.323Z,20.83
2019-03-23T09:29:07.705Z,17.67
2019-03-23T09:31:35.117Z,20.27
2019-03-23T09:34:02.509Z,18.00
2019-03-23T09:36:29.815Z,19.20
2019-03-23T09:38:57.076Z,18.67
2019-03-23T09:41:24.627Z,19.23
2019-03-23T09:43:51.858Z,19.27
2019-03-23T09:46:19.117Z,19.60
2019-03-23T09:48:46.386Z,21.40
2019-03-23T09:51:13.647Z,18.63
2019-03-23T09:53:41.389Z,20.30
2019-03-23T09:56:08.676Z,18.50
2019-03-23T09:58:35.929Z,18.50
2019-03-23T10:01:03.171Z,19.77
2019-03-23T10:03:30.401Z,18.70
2019-03-23T10:05:57.663Z,20.33
2019-03-23T10:08:24.875Z,19.73
2019-03-23T10:10:52.096Z,18.80
2019-03-23T10:13:19.355Z,20.87
2019-03-23T10:15:46.587Z,17.37
2019-03-23T10:18:13.834Z,17.40
2019-03-23T10:20:41.080Z,22.47
2019-03-23T10:23:08.315Z,19.77
2019-03-23T10:25:35.555Z,19.33
2019-03-23T10:28:02.774Z,19.67
2019-03-23T10:30:30.021Z,20.27
2019-03-23T10:32:57.235Z,19.10
2019-03-23T10:35:24.468Z,19.07
2019-03-23T10:37:51.695Z,18.43
2019-03-23T10:40:18.935Z,19.50
2019-03-23T10:42:46.176Z,21.20
2019-03-23T10:45:13.464Z,19.97
2019-03-23T10:47:40.736Z,17.80
2019-03-23T10:50:08.188Z,17.73
2019-03-23T10:52:35.410Z,16.50
2019-03-23T10:55:03.235Z,19.50
2019-03-23T10:57:30.471Z,19.27
2019-03-23T10:59:57.690Z,18.03
2019-03-23T11:02:24.928Z,19.63
2019-03-23T11:04:52.167Z,19.20
2019-03-23T11:07:19.402Z,18.13
2019-03-23T11:09:46.619Z,19.10
2019-03-23T11:12:13.859Z,19.00
2019-03-23T11:14:41.089Z,18.67
2019-03-23T11:17:08.318Z,18.93
2019-03-23T11:19:35.547Z,19.60
2019-03-23T11:22:02.831Z,18.00
2019-03-23T11:24:30.046Z,17.60
2019-03-23T11:26:57.371Z,19.40
2019-03-23T11:29:24.585Z,18.07
2019-03-23T11:31:51.810Z,18.40
2019-03-23T11:34:19.032Z,19.50
2019-03-23T11:36:46.266Z,17.83
2019-03-23T11:39:13.487Z,18.57
2019-03-23T11:41:40.729Z,18.83
2019-03-23T11:44:07.950Z,19.80
2019-03-23T11:46:35.196Z,18.90
2019-03-23T11:49:02.419Z,19.10
2019-03-23T11:51:29.643Z,17.40
2019-03-23T11:53:56.879Z,20.40
2019-03-23T11:56:24.109Z,18.97
2019-03-23T11:58:51.383Z,19.70
2019-03-23T12:01:18.707Z,18.03
2019-03-23T12:03:45.931Z,17.93
2019-03-23T12:06:13.163Z,18.73
2019-03-23T12:08:40.394Z,20.60
2019-03-23T12:11:07.611Z,18.50
2019-03-23T12:13:34.848Z,19.40
2019-03-23T12:16:02.270Z,18.63
2019-03-23T12:18:29.528Z,18.70
2019-03-23T12:20:56.831Z,20.13
2019-03-23T12:23:24.069Z,19.30
2019-03-23T12:25:51.294Z,19.90
2019-03-23T12:28:18.527Z,19.80
2019-03-23T12:30:45.748Z,20.30
2019-03-23T12:33:12.986Z,19.93
2019-03-23T12:35:40.208Z,19.13
2019-03-23T12:38:07.463Z,19.53
2019-03-23T12:40:36.434Z,20.80
2019-03-23T12:43:03.965Z,18.10
2019-03-23T12:45:31.268Z,19.43
2019-03-23T12:47:58.516Z,20.20
2019-03-23T12:50:28.737Z,18.60
2019-03-23T12:52:57.438Z,19.27
2019-03-23T12:55:24.864Z,18.53
2019-03-23T12:57:52.092Z,19.17
2019-03-23T13:00:19.323Z,20.00
2019-03-23T13:02:46.542Z,19.90
2019-03-23T13:05:13.776Z,18.33
2019-03-23T13:07:41.074Z,19.37
2019-03-23T13:10:09.772Z,19.70
2019-03-23T13:12:37.012Z,19.63
2019-03-23T13:15:05.761Z,18.80
2019-03-23T13:17:32.996Z,18.97
2019-03-23T13:20:00.357Z,17.70
2019-03-23T13:22:27.639Z,17.27
2019-03-23T13:24:54.859Z,18.90
2019-03-23T13:27:22.090Z,17.40
2019-03-23T13:29:49.310Z,19.30
2019-03-23T13:32:16.539Z,16.60
2019-03-23T13:34:43.769Z,17.07
2019-03-23T13:37:10.997Z,19.00
2019-03-23T13:39:38.231Z,19.23
2019-03-23T13:42:05.470Z,18.97
2019-03-23T13:44:32.695Z,19.77
2019-03-23T13:46:59.935Z,19.70
2019-03-23T13:49:27.170Z,17.80
2019-03-23T13:51:54.396Z,19.60
2019-03-23T13:54:21.630Z,18.77
2019-03-23T13:56:48.862Z,18.57
2019-03-23T13:59:16.090Z,19.80
2019-03-23T14:01:43.323Z,18.07
2019-03-23T14:04:10.557Z,18.20
2019-03-23T14:06:37.834Z,20.70
2019-03-23T14:09:05.890Z,21.27
2019-03-23T14:11:33.119Z,20.13
2019-03-23T14:14:00.740Z,19.90
2019-03-23T14:16:28.085Z,18.43
2019-03-23T14:18:55.306Z,18.73
2019-03-23T14:21:22.557Z,17.40
2019-03-23T14:23:49.804Z,19.60
2019-03-23T14:26:17.072Z,18.00
2019-03-23T14:28:44.546Z,18.57
2019-03-23T14:31:11.832Z,18.20
2019-03-23T14:33:40.253Z,19.90
2019-03-23T14:36:07.566Z,18.93
2019-03-23T14:38:34.798Z,19.17
2019-03-23T14:41:02.025Z,18.57
2019-03-23T14:43:29.280Z,19.37
2019-03-23T14:45:56.514Z,19.30
2019-03-23T14:48:23.746Z,17.80
2019-03-23T14:50:51.034Z,19.20
2019-03-23T14:53:18.264Z,17.60
2019-03-23T14:55:47.187Z,17.60
2019-03-23T14:58:14.452Z,17.93
2019-03-23T15:00:41.731Z,18.70
2019-03-23T15:03:08.952Z,20.00
2019-03-23T15:05:36.217Z,21.73
2019-03-23T15:08:03.560Z,19.43
2019-03-23T15:10:30.787Z,19.43
2019-03-23T15:12:58.008Z,21.00
2019-03-23T15:15:25.337Z,20.13
2019-03-23T15:17:52.552Z,20.80
2019-03-23T15:20:19.827Z,21.80
2019-03-23T15:22:47.095Z,20.10
2019-03-23T15:25:14.339Z,20.23
2019-03-23T15:27:41.567Z,21.07
2019-03-23T15:30:08.870Z,22.20
2019-03-23T15:32:36.150Z,20.50
2019-03-23T15:35:04.743Z,21.50
2019-03-23T15:37:31.963Z,19.00
2019-03-23T15:39:59.198Z,21.30
2019-03-23T15:42:26.414Z,19.27
2019-03-23T15:44:53.645Z,18.87
2019-03-23T15:47:20.871Z,20.60
2019-03-23T15:49:48.107Z,18.80
2019-03-23T15:52:15.354Z,20.27
2019-03-23T15:54:42.588Z,22.03
2019-03-23T15:57:09.796Z,21.20
2019-03-23T15:59:37.040Z,21.33
2019-03-23T16:02:04.272Z,19.90
2019-03-23T16:04:31.499Z,22.40
2019-03-23T16:06:58.715Z,23.20
2019-03-23T16:09:25.952Z,22.17
2019-03-23T16:11:53.187Z,22.97
2019-03-23T16:14:20.416Z,19.70
2019-03-23T16:16:47.635Z,23.50
2019-03-23T16:19:14.855Z,18.83
2019-03-23T16:21:42.087Z,19.77
2019-03-23T16:24:09.308Z,22.07
2019-03-23T16:26:36.547Z,18.93
2019-03-23T16:29:03.839Z,19.47
2019-03-23T16:31:31.107Z,19.60
2019-03-23T16:33:58.336Z,21.00
2019-03-23T16:36:25.728Z,21.03
2019-03-23T16:38:52.949Z,19.43
2019-03-23T16:41:20.174Z,20.67
2019-03-23T16:43:47.400Z,21.90
2019-03-23T16:46:14.641Z,21.60
2019-03-23T16:48:41.903Z,20.10
2019-03-23T16:51:09.174Z,19.97
2019-03-23T16:53:36.398Z,21.27
2019-03-23T16:56:03.668Z,19.37
2019-03-23T17:44:23.737Z,20.23
2019-03-23T21:10:41.327Z,24.17
2019-03-23T21:13:08.575Z,21.77
2019-03-23T21:15:35.790Z,23.67
2019-03-23T21:18:03.014Z,25.17
2019-03-23T21:20:30.246Z,25.40
2019-03-23T21:22:57.468Z,24.30
2019-03-23T21:25:24.742Z,23.63
2019-03-23T21:27:51.964Z,24.00
2019-03-23T21:30:19.363Z,23.70
2019-03-23T21:32:46.584Z,22.60
2019-03-23T21:35:15.666Z,23.53
2019-03-23T21:37:42.774Z,21.50
2019-03-23T21:40:10.014Z,25.47
2019-03-23T21:42:37.316Z,27.40
2019-03-23T21:45:05.738Z,28.50
2019-03-23T21:47:32.958Z,28.50
2019-03-23T21:50:00.364Z,27.67
2019-03-23T21:52:28.816Z,29.83
2019-03-23T21:54:56.067Z,27.83
2019-03-23T21:57:23.342Z,29.57
2019-03-23T21:59:50.587Z,28.30
2019-03-23T22:02:17.889Z,28.13
2019-03-23T22:04:45.160Z,28.97
2019-03-23T22:07:12.382Z,27.93
2019-03-23T22:09:39.615Z,31.07
2019-03-23T22:12:06.841Z,29.50
2019-03-23T22:14:41.626Z,32.20
2019-03-23T22:17:03.045Z,31.20
2019-03-23T22:19:30.315Z,31.17
2019-03-23T22:21:57.568Z,29.40
2019-03-23T22:24:24.805Z,29.73
2019-03-23T22:26:52.027Z,28.17
2019-03-23T22:29:19.296Z,30.10
2019-03-23T22:31:46.573Z,28.93
2019-03-23T22:34:13.827Z,29.40
2019-03-23T22:36:41.046Z,28.70
2019-03-23T22:39:08.288Z,28.37
2019-03-23T22:41:35.507Z,28.20
2019-03-23T22:44:02.820Z,27.73
2019-03-23T22:46:30.058Z,29.97
2019-03-23T22:48:57.280Z,30.67
2019-03-23T22:51:24.508Z,29.60
2019-03-23T22:53:51.750Z,26.85
2019-03-23T22:56:18.991Z,32.55
2019-03-23T22:58:46.230Z,28.45
2019-03-23T23:01:13.463Z,31.35
2019-03-23T23:03:40.703Z,29.48
2019-03-23T23:06:07.939Z,31.05
2019-03-23T23:08:35.182Z,31.05
2019-03-23T23:11:02.432Z,30.72
2019-03-23T23:13:29.675Z,30.90
2019-03-23T23:15:56.923Z,32.55
2019-03-23T23:18:24.159Z,31.37
2019-03-23T23:20:51.408Z,29.70
2019-03-23T23:23:18.652Z,28.02
2019-03-23T23:25:45.896Z,28.35
2019-03-23T23:28:13.126Z,28.62
2019-03-23T23:30:40.598Z,27.80
2019-03-23T23:33:07.828Z,30.25
2019-03-23T23:35:35.074Z,31.80
2019-03-23T23:38:02.299Z,28.65
2019-03-23T23:40:29.539Z,29.45
2019-03-23T23:42:56.770Z,31.93
2019-03-23T23:45:24.008Z,28.73
2019-03-23T23:47:51.261Z,29.60
2019-03-23T23:50:18.498Z,27.50
2019-03-23T23:52:45.739Z,26.37
2019-03-23T23:55:13.049Z,27.70
2019-03-23T23:57:40.271Z,27.00
